Stanchfield, Minnesota
Current Conditions -  °F | °C
As of 3:36 PM on Wednesday 17 Dec 2014 (Local Time) from KCBG Reporting Station
Clear Clear  
Wind Chill: 19°   Ceiling: Unl
Heat Index: 19°   Visibility: 10mi
Dew Point:   Wind: 0mph
Humidity: 63%   Direction: NA
Pressure: 30.28"   Gusts: NA
Location:  45.67°N, 93.18°W
Report Text: KCBG 172136Z AUTO 00000KT 10SM CLR M07/M13 A3028 RMK AO2
Loading
Personal Weather Stations






























Interactive Weather Map New forecast layout! Learn more

10-Day Weather Forecast

Advertisements
Track Severe Weather on mobile